createdAt,value
2023-04-16T00:04:41.330Z,61.58
2023-04-16T00:09:44.306Z,62.50
2023-04-16T00:14:47.402Z,62.96
2023-04-16T00:19:50.303Z,63.52
2023-04-16T00:24:53.311Z,63.68
2023-04-16T00:29:56.329Z,63.94
2023-04-16T00:35:00.809Z,64.38
2023-04-16T00:40:03.930Z,64.53
2023-04-16T00:45:07.546Z,64.94
2023-04-16T00:50:11.847Z,65.41
2023-04-16T00:55:16.054Z,65.08
2023-04-16T01:00:19.098Z,64.02
2023-04-16T01:05:22.078Z,64.51
2023-04-16T01:10:24.999Z,64.98
2023-04-16T01:15:28.006Z,64.76
2023-04-16T01:20:36.314Z,64.21
2023-04-16T01:25:39.808Z,64.01
2023-04-16T01:30:42.921Z,64.17
2023-04-16T01:35:55.352Z,63.72
2023-04-16T01:40:59.819Z,62.58
2023-04-16T01:46:16.134Z,62.09
2023-04-16T01:51:19.097Z,62.30
2023-04-16T01:56:22.153Z,62.31
2023-04-16T02:01:25.377Z,62.60
2023-04-16T02:06:28.445Z,62.64
2023-04-16T02:11:31.405Z,62.72
2023-04-16T02:16:34.471Z,62.32
2023-04-16T02:21:58.076Z,62.09
2023-04-16T02:27:01.246Z,62.19
2023-04-16T02:32:04.931Z,61.15
2023-04-16T02:37:09.239Z,59.33
2023-04-16T02:42:12.245Z,57.71
2023-04-16T02:47:15.509Z,57.11
2023-04-16T02:52:18.540Z,56.56
2023-04-16T02:57:21.703Z,54.75
2023-04-16T03:02:24.764Z,53.54
2023-04-16T03:07:27.782Z,52.89
2023-04-16T03:12:30.933Z,50.24
2023-04-16T03:17:34.086Z,51.74
2023-04-16T03:22:38.810Z,50.03
2023-04-16T03:27:41.813Z,50.09
2023-04-16T03:32:46.644Z,48.09
2023-04-16T03:37:50.855Z,47.82
2023-04-16T03:42:54.201Z,46.88
2023-04-16T03:47:57.914Z,45.91
2023-04-16T03:53:02.305Z,45.50
2023-04-16T03:58:05.638Z,43.17
2023-04-16T04:03:10.295Z,39.28
2023-04-16T04:08:14.381Z,39.91
2023-04-16T04:13:18.139Z,39.58
2023-04-16T04:18:21.269Z,33.10
2023-04-16T04:23:24.588Z,34.71
2023-04-16T04:28:27.769Z,33.05
2023-04-16T04:33:31.025Z,30.66
2023-04-16T04:38:34.427Z,30.31
2023-04-16T04:43:37.756Z,29.68
2023-04-16T04:48:42.199Z,27.39
2023-04-16T04:53:45.247Z,27.23
2023-04-16T04:58:50.373Z,25.59
2023-04-16T05:03:55.491Z,25.52
2023-04-16T05:08:58.539Z,26.00
2023-04-16T05:14:01.524Z,25.91
2023-04-16T05:19:07.279Z,26.14
2023-04-16T05:24:10.194Z,26.62
2023-04-16T05:29:13.200Z,25.14
2023-04-16T05:34:16.276Z,25.16
2023-04-16T05:39:20.110Z,25.69
2023-04-16T05:44:23.095Z,24.02
2023-04-16T05:49:26.074Z,23.25
2023-04-16T05:54:29.038Z,23.75
2023-04-16T05:59:31.978Z,24.31
2023-04-16T06:04:36.174Z,24.24
2023-04-16T06:09:39.122Z,24.14
2023-04-16T06:14:42.045Z,24.16
2023-04-16T06:19:45.172Z,22.98
2023-04-16T06:24:48.146Z,22.93
2023-04-16T06:29:51.181Z,23.49
2023-04-16T06:34:54.224Z,22.31
2023-04-16T06:39:57.190Z,22.80
2023-04-16T06:45:00.187Z,22.28
2023-04-16T06:50:03.189Z,21.99
2023-04-16T06:55:08.640Z,21.38
2023-04-16T07:00:12.429Z,20.00
2023-04-16T07:05:15.375Z,20.44
2023-04-16T07:10:18.652Z,18.73
2023-04-16T07:15:22.554Z,19.51
2023-04-16T07:20:25.585Z,18.96
2023-04-16T07:25:28.563Z,20.13
2023-04-16T07:30:34.608Z,21.46
2023-04-16T07:35:37.660Z,23.21
2023-04-16T07:40:40.702Z,23.59
2023-04-16T07:45:43.762Z,24.22
2023-04-16T07:50:46.832Z,23.63
2023-04-16T07:55:49.869Z,22.75
2023-04-16T08:00:53.748Z,22.34
2023-04-16T08:05:56.801Z,23.48
2023-04-16T08:11:00.436Z,24.04
2023-04-16T08:16:03.407Z,23.29
2023-04-16T08:21:06.632Z,23.39
2023-04-16T08:26:09.559Z,22.70
2023-04-16T08:31:12.545Z,21.72
2023-04-16T08:36:15.679Z,21.92
2023-04-16T08:41:22.804Z,21.17
2023-04-16T08:46:27.007Z,21.85
2023-04-16T08:51:34.343Z,21.55
2023-04-16T08:56:39.480Z,21.52
2023-04-16T09:01:44.130Z,21.95
2023-04-16T09:06:48.913Z,21.65
2023-04-16T09:11:53.303Z,22.20
2023-04-16T09:16:56.494Z,22.63
2023-04-16T09:21:59.734Z,22.58
2023-04-16T09:27:03.215Z,22.51
2023-04-16T09:32:11.050Z,22.80
2023-04-16T09:37:23.552Z,23.22
2023-04-16T09:42:29.921Z,23.64
2023-04-16T09:47:41.602Z,23.30
2023-04-16T09:52:48.227Z,23.14
2023-04-16T09:57:59.691Z,23.34
2023-04-16T10:03:07.556Z,23.89
2023-04-16T10:08:14.747Z,24.47
2023-04-16T10:13:19.491Z,23.88
2023-04-16T10:18:23.092Z,24.21
2023-04-16T10:23:27.103Z,23.91
2023-04-16T10:28:30.987Z,24.60
2023-04-16T10:33:36.762Z,24.62
2023-04-16T10:39:00.757Z,25.06
2023-04-16T10:44:11.863Z,24.96
2023-04-16T10:49:19.880Z,24.80
2023-04-16T10:54:27.948Z,25.33
2023-04-16T10:59:32.856Z,24.92
2023-04-16T11:04:38.102Z,24.83
2023-04-16T11:10:02.560Z,25.32
2023-04-16T11:15:13.279Z,24.88
2023-04-16T11:20:23.952Z,24.69
2023-04-16T11:25:31.916Z,24.03
2023-04-16T11:30:36.651Z,24.29
2023-04-16T11:35:40.741Z,24.22
2023-04-16T11:40:43.662Z,23.45
2023-04-16T11:46:20.146Z,24.41
2023-04-16T11:51:27.396Z,24.15
2023-04-16T11:56:33.158Z,23.82
2023-04-16T12:01:37.481Z,24.23
2023-04-16T12:06:40.493Z,24.70
2023-04-16T12:11:43.974Z,24.76
2023-04-16T12:16:47.176Z,24.18
2023-04-16T12:21:51.443Z,24.62
2023-04-16T12:27:03.423Z,24.24
2023-04-16T12:32:21.943Z,24.59
2023-04-16T12:37:25.331Z,24.24
2023-04-16T12:42:28.312Z,24.19
2023-04-16T12:47:32.431Z,24.50
2023-04-16T12:52:35.864Z,24.62
2023-04-16T12:57:38.793Z,24.54
2023-04-16T13:02:41.903Z,25.00
2023-04-16T13:07:45.383Z,25.32
2023-04-16T13:12:49.271Z,25.23
2023-04-16T13:17:52.301Z,25.08
2023-04-16T13:22:55.554Z,25.42
2023-04-16T13:27:58.475Z,25.14
2023-04-16T13:33:01.509Z,25.47
2023-04-16T13:38:05.389Z,26.21
2023-04-16T13:43:08.429Z,25.88
2023-04-16T13:48:11.580Z,25.87
2023-04-16T13:53:14.608Z,25.96
2023-04-16T13:58:17.580Z,25.99
2023-04-16T14:03:20.758Z,26.11
2023-04-16T14:08:23.782Z,25.56
2023-04-16T14:13:26.794Z,26.10
2023-04-16T14:18:29.779Z,26.28
2023-04-16T14:23:33.222Z,26.09
2023-04-16T14:28:36.707Z,26.33
2023-04-16T14:33:39.752Z,26.35
2023-04-16T14:38:47.442Z,25.97
2023-04-16T14:43:50.785Z,25.42
2023-04-16T14:48:53.865Z,26.18
2023-04-16T14:53:56.951Z,25.48
2023-04-16T14:58:59.954Z,25.56
2023-04-16T15:04:03.330Z,26.30
2023-04-16T15:09:07.760Z,26.20
2023-04-16T15:14:11.198Z,26.02
2023-04-16T15:19:14.504Z,25.80
2023-04-16T15:24:17.631Z,26.61
2023-04-16T15:29:20.668Z,26.77
2023-04-16T15:34:23.627Z,27.27
2023-04-16T15:39:26.982Z,26.70
2023-04-16T15:44:31.377Z,27.39
2023-04-16T15:49:34.592Z,27.72
2023-04-16T15:54:37.742Z,27.46
2023-04-16T15:59:40.818Z,28.16
2023-04-16T16:04:46.440Z,28.43
2023-04-16T16:09:49.495Z,29.53
2023-04-16T16:14:52.427Z,29.23
2023-04-16T16:19:57.860Z,31.19
2023-04-16T16:25:00.882Z,30.39
2023-04-16T16:30:08.061Z,32.38
2023-04-16T16:35:11.970Z,32.61
2023-04-16T16:40:15.174Z,33.85
2023-04-16T16:45:18.169Z,34.76
2023-04-16T16:50:21.161Z,35.80
2023-04-16T16:55:24.246Z,36.50
2023-04-16T17:00:27.822Z,37.15
2023-04-16T17:05:30.819Z,36.52
2023-04-16T17:10:33.832Z,37.96
2023-04-16T17:15:36.841Z,38.62
2023-04-16T17:20:39.992Z,37.39
2023-04-16T17:25:43.109Z,39.40
2023-04-16T17:30:46.463Z,38.02
2023-04-16T17:35:49.395Z,39.45
2023-04-16T17:40:57.236Z,40.26
2023-04-16T17:46:00.166Z,40.05
2023-04-16T17:51:10.698Z,41.03
2023-04-16T17:56:14.116Z,41.46
2023-04-16T18:01:17.177Z,41.79
2023-04-16T18:06:20.100Z,42.55
2023-04-16T18:11:23.181Z,43.32
2023-04-16T18:16:26.600Z,43.84
2023-04-16T18:21:48.113Z,46.14
2023-04-16T18:26:51.334Z,46.93
2023-04-16T18:31:55.437Z,46.80
2023-04-16T18:37:17.665Z,47.21
2023-04-16T18:42:21.226Z,47.79
2023-04-16T18:47:24.389Z,49.26
2023-04-16T18:52:28.163Z,49.16
2023-04-16T18:57:31.216Z,49.24
2023-04-16T19:02:34.246Z,50.26
2023-04-16T19:07:37.869Z,51.56
2023-04-16T19:12:59.807Z,52.07
2023-04-16T19:18:03.072Z,53.18
2023-04-16T19:23:24.608Z,53.30
2023-04-16T19:28:27.736Z,52.20
2023-04-16T19:33:31.674Z,52.29
2023-04-16T19:38:34.653Z,52.51
2023-04-16T19:43:37.660Z,53.37
2023-04-16T19:48:40.709Z,52.53
2023-04-16T19:54:02.655Z,55.20
2023-04-16T19:59:05.714Z,55.74
2023-04-16T20:04:27.360Z,55.88
2023-04-16T20:09:30.539Z,55.65
2023-04-16T20:14:33.596Z,56.25
2023-04-16T20:19:56.193Z,56.80
2023-04-16T20:25:19.664Z,56.00
2023-04-16T20:30:24.730Z,56.83
2023-04-16T20:35:27.733Z,57.47
2023-04-16T20:40:30.841Z,56.90
2023-04-16T20:45:38.326Z,57.56
2023-04-16T20:50:41.817Z,58.12
2023-04-16T20:55:44.817Z,58.44
2023-04-16T21:00:52.062Z,58.43
2023-04-16T21:05:55.829Z,59.44
2023-04-16T21:10:58.943Z,59.64
2023-04-16T21:16:02.071Z,58.82
2023-04-16T21:21:05.162Z,60.01
2023-04-16T21:26:08.116Z,59.67
2023-04-16T21:31:11.377Z,60.39
2023-04-16T21:36:14.428Z,60.55
2023-04-16T21:41:17.397Z,61.12
2023-04-16T21:46:21.109Z,60.76
2023-04-16T21:51:29.594Z,62.07
2023-04-16T21:56:32.612Z,62.47
2023-04-16T22:01:35.697Z,62.57
2023-04-16T22:06:38.673Z,63.26
2023-04-16T22:11:41.748Z,62.98
2023-04-16T22:16:50.145Z,63.27
2023-04-16T22:21:53.370Z,63.66
2023-04-16T22:26:57.288Z,64.48
2023-04-16T22:32:01.058Z,64.25
2023-04-16T22:37:04.165Z,64.49
2023-04-16T22:42:07.663Z,65.19
2023-04-16T22:47:10.685Z,65.29
2023-04-16T22:52:13.703Z,65.80
2023-04-16T22:57:21.317Z,66.04
2023-04-16T23:02:24.408Z,66.40
2023-04-16T23:07:27.413Z,66.55
2023-04-16T23:12:30.427Z,66.12
2023-04-16T23:17:34.219Z,67.44
2023-04-16T23:22:37.208Z,67.21
2023-04-16T23:27:40.149Z,67.54
2023-04-16T23:32:43.153Z,68.06
2023-04-16T23:37:46.991Z,68.25
2023-04-16T23:42:49.960Z,67.87
2023-04-16T23:47:52.886Z,68.27
2023-04-16T23:52:55.941Z,68.03
2023-04-16T23:57:58.860Z,68.36
